Abisko, Sweden

2:28 PM CEST on October 22, 2014 (GMT +0200)
Bjornfjell 520moh | Change Station
CLOSE
Current Station
Personal Weather Station
Location: Riksgrensen, NORDLAND
Elevation: 1706 ft
Nearby Weather Stations

Elev 1706 ft 68.44 °N, 18.07 °E | Updated 11 minutes ago

Partly Cloudy
Partly Cloudy
27.6 °F
Feels Like 14 °F
N
22.0
Wind Variable Wind from East
Gusts 26.0 mph

Today
High -- | Low -- °F
--% Chance of Precip.
Yesterday
High -- | Low -- °F
Precip. -- in
8:16 AM 4:40 PM
Waning Crescent, 2% visible
Pressure 29.92 in
Visibility 6.2 miles
Clouds Few 3500 ft
Windchill 14 °F
Dew Point 19 °F
Humidity 69%
Rainfall 0.00 in
Snow Depth Not available.
UV 0 out of 12
Pollen Not available.
Air Quality Not available.
Flu Activity Not available.
METAR ENDU 221220Z 10013KT 9999 FEW035 01/M10 Q1013 TEMPO 12015G25KT

More Conditions Fewer Conditions

Pressure 29.92 in
Visibility 6.2 miles
Clouds Few 3500 ft
Windchill 14 °F
Dew Point 19 °F
Humidity 69%
Rainfall 0.00 in
Snow Depth Not available.
UV 0 out of 12
Pollen Not available.
Air Quality Not available.
Flu Activity Not available.
METAR ENDU 221220Z 10013KT 9999 FEW035 01/M10 Q1013 TEMPO 12015G25KT

More Conditions Fewer Conditions

10-Day Weather Forecast

Almanac

Astronomy

Oct. 22, 2014 Rise Set
Actual Time 8:16 AM CEST 4:40 PM CEST
Civil Twilight 7:15 AM CEST 5:40 PM CEST
Nautical Twilight 6:09 AM CEST 6:46 PM CEST
Astronomical Twilight 5:03 AM CEST 7:52 PM CEST
Moon 5:57 AM CEST 4:29 PM CEST
Length of Visible Light 10h 25m
Length of Day
8h 23m
Tomorrow will be 8m 17s shorter.
Waning Crescent, 2% of the Moon is Illuminated
Today
Waning Crescent
Oct 23
New
Oct 30
First Quarter
Nov 6
Full
Nov 14
Last Quarter

Yesterday's Extremes

Country Highs Country Lows

Community

WunderPhotos

Upload Photos

1,763,907 photos uploaded!

Nearby

Snow Depth

Not available.

Earthquake Activity

City Distance Mag. Time & Date
No recent earthquake activity has been reported nearby.
Minimum magnitude displayed is 2.5.

Coastal Water Temperatures

Place Temperature
No Stations Reporting

Nearby Weather Stations